sensor_id;sensor_type;location;lat;lon;timestamp;P1;durP1;ratioP1;P2;durP2;ratioP2
177;SDS011;77;48.792;9.032;2023-05-20T00:00:43;7.57;;;5.10;;
177;SDS011;77;48.792;9.032;2023-05-20T00:03:08;9.73;;;5.77;;
177;SDS011;77;48.792;9.032;2023-05-20T00:05:34;7.80;;;5.50;;
177;SDS011;77;48.792;9.032;2023-05-20T00:07:59;9.77;;;6.13;;
177;SDS011;77;48.792;9.032;2023-05-20T00:10:24;9.37;;;5.97;;
177;SDS011;77;48.792;9.032;2023-05-20T00:12:50;8.57;;;6.00;;
177;SDS011;77;48.792;9.032;2023-05-20T00:15:16;9.47;;;5.97;;
177;SDS011;77;48.792;9.032;2023-05-20T00:17:41;13.27;;;6.40;;
177;SDS011;77;48.792;9.032;2023-05-20T00:20:06;10.87;;;6.10;;
177;SDS011;77;48.792;9.032;2023-05-20T00:22:31;9.53;;;6.50;;
177;SDS011;77;48.792;9.032;2023-05-20T00:24:57;12.27;;;6.77;;
177;SDS011;77;48.792;9.032;2023-05-20T00:27:22;13.03;;;6.30;;
177;SDS011;77;48.792;9.032;2023-05-20T00:29:48;11.50;;;6.73;;
177;SDS011;77;48.792;9.032;2023-05-20T00:32:14;10.33;;;6.63;;
177;SDS011;77;48.792;9.032;2023-05-20T00:34:39;10.00;;;6.80;;
177;SDS011;77;48.792;9.032;2023-05-20T00:37:04;12.17;;;6.50;;
177;SDS011;77;48.792;9.032;2023-05-20T00:39:29;11.20;;;6.87;;
177;SDS011;77;48.792;9.032;2023-05-20T00:41:54;13.73;;;7.20;;
177;SDS011;77;48.792;9.032;2023-05-20T00:44:20;9.40;;;6.83;;
177;SDS011;77;48.792;9.032;2023-05-20T00:46:46;12.07;;;6.87;;
177;SDS011;77;48.792;9.032;2023-05-20T00:49:11;14.30;;;7.70;;
177;SDS011;77;48.792;9.032;2023-05-20T00:51:36;10.23;;;6.97;;
177;SDS011;77;48.792;9.032;2023-05-20T00:54:02;10.27;;;6.80;;
177;SDS011;77;48.792;9.032;2023-05-20T00:56:27;9.40;;;6.40;;
177;SDS011;77;48.792;9.032;2023-05-20T00:58:52;10.40;;;6.20;;
177;SDS011;77;48.792;9.032;2023-05-20T01:01:18;10.83;;;7.60;;
177;SDS011;77;48.792;9.032;2023-05-20T01:03:44;10.27;;;7.03;;
177;SDS011;77;48.792;9.032;2023-05-20T01:06:10;13.50;;;7.97;;
177;SDS011;77;48.792;9.032;2023-05-20T01:08:35;12.43;;;7.00;;
177;SDS011;77;48.792;9.032;2023-05-20T01:11:02;9.50;;;6.97;;
177;SDS011;77;48.792;9.032;2023-05-20T01:13:28;12.03;;;7.60;;
177;SDS011;77;48.792;9.032;2023-05-20T01:15:55;9.93;;;7.17;;
177;SDS011;77;48.792;9.032;2023-05-20T01:18:21;12.50;;;7.67;;
177;SDS011;77;48.792;9.032;2023-05-20T01:20:49;12.70;;;7.37;;
177;SDS011;77;48.792;9.032;2023-05-20T01:23:16;10.80;;;7.40;;
177;SDS011;77;48.792;9.032;2023-05-20T01:25:41;10.40;;;6.87;;
177;SDS011;77;48.792;9.032;2023-05-20T01:28:06;13.97;;;7.57;;
177;SDS011;77;48.792;9.032;2023-05-20T01:30:32;11.07;;;7.30;;
177;SDS011;77;48.792;9.032;2023-05-20T01:33:00;12.63;;;7.50;;
177;SDS011;77;48.792;9.032;2023-05-20T01:35:25;35.03;;;7.20;;
177;SDS011;77;48.792;9.032;2023-05-20T01:37:52;9.90;;;7.20;;
177;SDS011;77;48.792;9.032;2023-05-20T01:40:18;10.60;;;7.53;;
177;SDS011;77;48.792;9.032;2023-05-20T01:42:44;13.80;;;7.10;;
177;SDS011;77;48.792;9.032;2023-05-20T01:45:10;14.10;;;8.17;;
177;SDS011;77;48.792;9.032;2023-05-20T01:47:35;14.00;;;7.87;;
177;SDS011;77;48.792;9.032;2023-05-20T01:50:00;11.10;;;7.67;;
177;SDS011;77;48.792;9.032;2023-05-20T01:52:25;12.10;;;7.87;;
177;SDS011;77;48.792;9.032;2023-05-20T01:54:50;15.60;;;6.97;;
177;SDS011;77;48.792;9.032;2023-05-20T01:57:17;10.30;;;6.97;;
177;SDS011;77;48.792;9.032;2023-05-20T01:59:42;9.80;;;6.70;;
177;SDS011;77;48.792;9.032;2023-05-20T02:02:07;10.57;;;6.70;;
177;SDS011;77;48.792;9.032;2023-05-20T02:04:33;11.60;;;7.00;;
177;SDS011;77;48.792;9.032;2023-05-20T02:06:58;11.87;;;7.60;;
177;SDS011;77;48.792;9.032;2023-05-20T02:09:23;11.60;;;7.60;;
177;SDS011;77;48.792;9.032;2023-05-20T02:11:48;11.50;;;7.03;;
177;SDS011;77;48.792;9.032;2023-05-20T02:14:15;10.57;;;7.10;;
177;SDS011;77;48.792;9.032;2023-05-20T02:16:40;11.10;;;7.53;;
177;SDS011;77;48.792;9.032;2023-05-20T02:19:05;14.23;;;7.83;;
177;SDS011;77;48.792;9.032;2023-05-20T02:21:30;13.80;;;7.67;;
177;SDS011;77;48.792;9.032;2023-05-20T02:23:55;10.50;;;7.47;;
177;SDS011;77;48.792;9.032;2023-05-20T02:26:20;11.37;;;7.50;;
177;SDS011;77;48.792;9.032;2023-05-20T02:28:45;10.47;;;7.10;;
177;SDS011;77;48.792;9.032;2023-05-20T02:31:12;10.50;;;7.43;;
177;SDS011;77;48.792;9.032;2023-05-20T02:33:37;11.90;;;7.17;;
177;SDS011;77;48.792;9.032;2023-05-20T02:36:02;9.83;;;7.30;;
177;SDS011;77;48.792;9.032;2023-05-20T02:38:28;9.53;;;6.90;;
177;SDS011;77;48.792;9.032;2023-05-20T02:40:53;12.83;;;7.60;;
177;SDS011;77;48.792;9.032;2023-05-20T02:43:19;10.37;;;7.47;;
177;SDS011;77;48.792;9.032;2023-05-20T02:45:44;11.03;;;7.10;;
177;SDS011;77;48.792;9.032;2023-05-20T02:48:11;10.10;;;7.50;;
177;SDS011;77;48.792;9.032;2023-05-20T02:50:37;10.83;;;7.87;;
177;SDS011;77;48.792;9.032;2023-05-20T02:53:02;12.87;;;7.70;;
177;SDS011;77;48.792;9.032;2023-05-20T02:55:27;9.43;;;7.20;;
177;SDS011;77;48.792;9.032;2023-05-20T02:57:52;10.43;;;7.80;;
177;SDS011;77;48.792;9.032;2023-05-20T03:00:17;11.33;;;7.17;;
177;SDS011;77;48.792;9.032;2023-05-20T03:02:42;11.63;;;7.60;;
177;SDS011;77;48.792;9.032;2023-05-20T03:05:09;11.73;;;7.43;;
177;SDS011;77;48.792;9.032;2023-05-20T03:07:34;12.67;;;8.00;;
177;SDS011;77;48.792;9.032;2023-05-20T03:10:00;12.27;;;7.50;;
177;SDS011;77;48.792;9.032;2023-05-20T03:12:25;10.63;;;7.30;;
177;SDS011;77;48.792;9.032;2023-05-20T03:14:50;12.70;;;7.80;;
177;SDS011;77;48.792;9.032;2023-05-20T03:17:15;11.53;;;7.70;;
177;SDS011;77;48.792;9.032;2023-05-20T03:19:40;12.20;;;7.57;;
177;SDS011;77;48.792;9.032;2023-05-20T03:22:07;12.50;;;7.80;;
177;SDS011;77;48.792;9.032;2023-05-20T03:24:32;11.93;;;7.83;;
177;SDS011;77;48.792;9.032;2023-05-20T03:26:57;20.33;;;7.50;;
177;SDS011;77;48.792;9.032;2023-05-20T03:29:22;11.53;;;7.57;;
177;SDS011;77;48.792;9.032;2023-05-20T03:31:47;10.77;;;6.60;;
177;SDS011;77;48.792;9.032;2023-05-20T03:34:13;13.10;;;7.70;;
177;SDS011;77;48.792;9.032;2023-05-20T03:36:38;13.27;;;7.10;;
177;SDS011;77;48.792;9.032;2023-05-20T03:39:04;11.23;;;7.33;;
177;SDS011;77;48.792;9.032;2023-05-20T03:41:30;11.70;;;7.60;;
177;SDS011;77;48.792;9.032;2023-05-20T03:43:55;13.93;;;7.73;;
177;SDS011;77;48.792;9.032;2023-05-20T03:46:20;11.70;;;7.50;;
177;SDS011;77;48.792;9.032;2023-05-20T03:48:46;10.63;;;7.30;;
177;SDS011;77;48.792;9.032;2023-05-20T03:51:11;13.70;;;7.33;;
177;SDS011;77;48.792;9.032;2023-05-20T03:53:36;10.57;;;6.53;;
177;SDS011;77;48.792;9.032;2023-05-20T03:56:03;15.63;;;7.37;;
177;SDS011;77;48.792;9.032;2023-05-20T03:58:28;10.90;;;6.77;;
177;SDS011;77;48.792;9.032;2023-05-20T04:00:53;10.50;;;7.27;;
177;SDS011;77;48.792;9.032;2023-05-20T04:03:18;12.50;;;7.33;;
177;SDS011;77;48.792;9.032;2023-05-20T04:05:43;12.20;;;7.30;;
177;SDS011;77;48.792;9.032;2023-05-20T04:08:09;10.40;;;7.10;;
177;SDS011;77;48.792;9.032;2023-05-20T04:10:34;10.67;;;7.27;;
177;SDS011;77;48.792;9.032;2023-05-20T04:13:00;14.50;;;7.53;;
177;SDS011;77;48.792;9.032;2023-05-20T04:15:25;11.37;;;7.47;;
177;SDS011;77;48.792;9.032;2023-05-20T04:17:51;11.50;;;7.33;;
177;SDS011;77;48.792;9.032;2023-05-20T04:20:16;12.20;;;7.37;;
177;SDS011;77;48.792;9.032;2023-05-20T04:22:41;10.13;;;6.80;;
177;SDS011;77;48.792;9.032;2023-05-20T04:25:07;11.57;;;7.40;;
177;SDS011;77;48.792;9.032;2023-05-20T04:27:32;10.83;;;6.93;;
177;SDS011;77;48.792;9.032;2023-05-20T04:29:58;10.93;;;7.30;;
177;SDS011;77;48.792;9.032;2023-05-20T04:32:24;13.70;;;7.47;;
177;SDS011;77;48.792;9.032;2023-05-20T04:34:51;12.23;;;7.73;;
177;SDS011;77;48.792;9.032;2023-05-20T04:37:16;13.10;;;7.50;;
177;SDS011;77;48.792;9.032;2023-05-20T04:39:42;12.50;;;7.77;;
177;SDS011;77;48.792;9.032;2023-05-20T04:42:07;13.40;;;7.20;;
177;SDS011;77;48.792;9.032;2023-05-20T04:44:32;11.53;;;8.00;;
177;SDS011;77;48.792;9.032;2023-05-20T04:46:58;11.37;;;7.80;;
177;SDS011;77;48.792;9.032;2023-05-20T04:49:24;11.07;;;7.00;;
177;SDS011;77;48.792;9.032;2023-05-20T04:51:49;12.00;;;7.50;;
177;SDS011;77;48.792;9.032;2023-05-20T04:54:14;11.70;;;7.60;;
177;SDS011;77;48.792;9.032;2023-05-20T04:56:39;11.87;;;7.50;;
177;SDS011;77;48.792;9.032;2023-05-20T04:59:04;14.80;;;8.30;;
177;SDS011;77;48.792;9.032;2023-05-20T05:01:29;11.80;;;7.77;;
177;SDS011;77;48.792;9.032;2023-05-20T05:03:56;13.27;;;8.20;;
177;SDS011;77;48.792;9.032;2023-05-20T05:06:21;10.33;;;7.30;;
177;SDS011;77;48.792;9.032;2023-05-20T05:08:46;12.10;;;7.67;;
177;SDS011;77;48.792;9.032;2023-05-20T05:11:11;16.43;;;7.50;;
177;SDS011;77;48.792;9.032;2023-05-20T05:13:37;10.70;;;7.23;;
177;SDS011;77;48.792;9.032;2023-05-20T05:16:02;12.10;;;7.53;;
177;SDS011;77;48.792;9.032;2023-05-20T05:18:27;12.77;;;7.87;;
177;SDS011;77;48.792;9.032;2023-05-20T05:20:58;12.03;;;6.90;;
177;SDS011;77;48.792;9.032;2023-05-20T05:23:23;10.63;;;7.40;;
177;SDS011;77;48.792;9.032;2023-05-20T05:25:49;11.50;;;7.73;;
177;SDS011;77;48.792;9.032;2023-05-20T05:28:15;16.73;;;7.80;;
177;SDS011;77;48.792;9.032;2023-05-20T05:30:40;11.97;;;7.80;;
177;SDS011;77;48.792;9.032;2023-05-20T05:33:05;11.53;;;7.30;;
177;SDS011;77;48.792;9.032;2023-05-20T05:35:30;14.70;;;7.87;;
177;SDS011;77;48.792;9.032;2023-05-20T05:37:57;13.57;;;8.07;;
177;SDS011;77;48.792;9.032;2023-05-20T05:40:22;12.43;;;7.43;;
177;SDS011;77;48.792;9.032;2023-05-20T05:42:48;10.13;;;7.10;;
177;SDS011;77;48.792;9.032;2023-05-20T05:45:13;18.53;;;8.17;;
177;SDS011;77;48.792;9.032;2023-05-20T05:47:38;12.80;;;7.80;;
177;SDS011;77;48.792;9.032;2023-05-20T05:50:03;11.93;;;7.00;;
177;SDS011;77;48.792;9.032;2023-05-20T05:52:28;12.40;;;7.57;;
177;SDS011;77;48.792;9.032;2023-05-20T05:54:55;13.40;;;7.90;;
177;SDS011;77;48.792;9.032;2023-05-20T05:57:20;11.83;;;7.93;;
177;SDS011;77;48.792;9.032;2023-05-20T05:59:45;12.70;;;7.97;;
177;SDS011;77;48.792;9.032;2023-05-20T06:02:10;13.40;;;7.67;;
177;SDS011;77;48.792;9.032;2023-05-20T06:04:36;11.43;;;7.73;;
177;SDS011;77;48.792;9.032;2023-05-20T06:07:01;13.20;;;7.63;;
177;SDS011;77;48.792;9.032;2023-05-20T06:09:26;14.10;;;8.03;;
177;SDS011;77;48.792;9.032;2023-05-20T06:11:52;13.60;;;8.30;;
177;SDS011;77;48.792;9.032;2023-05-20T06:14:17;10.67;;;7.67;;
177;SDS011;77;48.792;9.032;2023-05-20T06:16:43;11.77;;;7.70;;
177;SDS011;77;48.792;9.032;2023-05-20T06:19:08;12.30;;;7.50;;
177;SDS011;77;48.792;9.032;2023-05-20T06:21:33;13.03;;;7.60;;
177;SDS011;77;48.792;9.032;2023-05-20T06:23:58;11.50;;;7.93;;
177;SDS011;77;48.792;9.032;2023-05-20T06:26:23;10.30;;;7.13;;
177;SDS011;77;48.792;9.032;2023-05-20T06:28:50;13.83;;;7.60;;
177;SDS011;77;48.792;9.032;2023-05-20T06:31:15;12.60;;;8.43;;
177;SDS011;77;48.792;9.032;2023-05-20T06:33:40;16.10;;;8.17;;
177;SDS011;77;48.792;9.032;2023-05-20T06:36:05;15.13;;;8.40;;
177;SDS011;77;48.792;9.032;2023-05-20T06:38:31;13.00;;;8.20;;
177;SDS011;77;48.792;9.032;2023-05-20T06:40:56;12.83;;;9.13;;
177;SDS011;77;48.792;9.032;2023-05-20T06:43:21;13.60;;;7.97;;
177;SDS011;77;48.792;9.032;2023-05-20T06:45:47;13.83;;;8.63;;
177;SDS011;77;48.792;9.032;2023-05-20T06:48:13;12.67;;;8.80;;
177;SDS011;77;48.792;9.032;2023-05-20T06:50:38;14.67;;;9.00;;
177;SDS011;77;48.792;9.032;2023-05-20T06:53:03;13.00;;;8.30;;
177;SDS011;77;48.792;9.032;2023-05-20T06:55:28;13.10;;;8.60;;
177;SDS011;77;48.792;9.032;2023-05-20T06:57:53;11.53;;;8.30;;
177;SDS011;77;48.792;9.032;2023-05-20T07:00:19;17.93;;;9.33;;
177;SDS011;77;48.792;9.032;2023-05-20T07:02:45;15.63;;;10.00;;
177;SDS011;77;48.792;9.032;2023-05-20T07:05:10;12.63;;;9.50;;
177;SDS011;77;48.792;9.032;2023-05-20T07:07:36;13.50;;;8.63;;
177;SDS011;77;48.792;9.032;2023-05-20T07:10:01;15.27;;;9.23;;
177;SDS011;77;48.792;9.032;2023-05-20T07:12:26;14.00;;;9.00;;
177;SDS011;77;48.792;9.032;2023-05-20T07:14:51;12.30;;;9.00;;
177;SDS011;77;48.792;9.032;2023-05-20T07:17:16;13.57;;;8.90;;
177;SDS011;77;48.792;9.032;2023-05-20T07:19:43;13.17;;;9.23;;
177;SDS011;77;48.792;9.032;2023-05-20T07:22:08;11.30;;;8.00;;
177;SDS011;77;48.792;9.032;2023-05-20T07:24:33;14.93;;;10.03;;
177;SDS011;77;48.792;9.032;2023-05-20T07:26:59;12.90;;;8.50;;
177;SDS011;77;48.792;9.032;2023-05-20T07:29:24;13.30;;;8.70;;
177;SDS011;77;48.792;9.032;2023-05-20T07:31:49;13.67;;;9.40;;
177;SDS011;77;48.792;9.032;2023-05-20T07:34:14;18.23;;;9.90;;
177;SDS011;77;48.792;9.032;2023-05-20T07:36:41;13.80;;;9.27;;
177;SDS011;77;48.792;9.032;2023-05-20T07:39:06;13.60;;;8.87;;
177;SDS011;77;48.792;9.032;2023-05-20T07:41:31;14.83;;;9.50;;
177;SDS011;77;48.792;9.032;2023-05-20T07:43:56;13.07;;;8.87;;
177;SDS011;77;48.792;9.032;2023-05-20T07:46:21;13.87;;;8.80;;
177;SDS011;77;48.792;9.032;2023-05-20T07:48:47;13.80;;;9.00;;
177;SDS011;77;48.792;9.032;2023-05-20T07:51:12;12.73;;;8.83;;
177;SDS011;77;48.792;9.032;2023-05-20T07:53:38;11.03;;;8.13;;
177;SDS011;77;48.792;9.032;2023-05-20T07:56:03;13.10;;;8.57;;
177;SDS011;77;48.792;9.032;2023-05-20T07:58:29;13.50;;;9.30;;
177;SDS011;77;48.792;9.032;2023-05-20T08:00:55;13.10;;;8.70;;
177;SDS011;77;48.792;9.032;2023-05-20T08:03:20;14.70;;;8.60;;
177;SDS011;77;48.792;9.032;2023-05-20T08:05:45;11.83;;;7.83;;
177;SDS011;77;48.792;9.032;2023-05-20T08:08:10;14.90;;;7.87;;
177;SDS011;77;48.792;9.032;2023-05-20T08:10:37;11.97;;;8.40;;
177;SDS011;77;48.792;9.032;2023-05-20T08:13:02;14.03;;;8.97;;
177;SDS011;77;48.792;9.032;2023-05-20T08:15:27;15.13;;;9.30;;
177;SDS011;77;48.792;9.032;2023-05-20T08:17:52;11.73;;;8.53;;
177;SDS011;77;48.792;9.032;2023-05-20T08:20:18;13.00;;;8.80;;
177;SDS011;77;48.792;9.032;2023-05-20T08:22:43;13.40;;;9.00;;
177;SDS011;77;48.792;9.032;2023-05-20T08:25:08;13.80;;;9.10;;
177;SDS011;77;48.792;9.032;2023-05-20T08:27:35;15.60;;;8.60;;
177;SDS011;77;48.792;9.032;2023-05-20T08:30:00;10.87;;;8.07;;
177;SDS011;77;48.792;9.032;2023-05-20T08:32:25;12.73;;;8.73;;
177;SDS011;77;48.792;9.032;2023-05-20T08:34:50;12.90;;;8.13;;
177;SDS011;77;48.792;9.032;2023-05-20T08:37:16;13.70;;;8.93;;
177;SDS011;77;48.792;9.032;2023-05-20T08:39:41;12.77;;;8.50;;
177;SDS011;77;48.792;9.032;2023-05-20T08:42:07;13.10;;;8.63;;
177;SDS011;77;48.792;9.032;2023-05-20T08:44:33;16.63;;;9.30;;
177;SDS011;77;48.792;9.032;2023-05-20T08:46:59;13.67;;;8.00;;
177;SDS011;77;48.792;9.032;2023-05-20T08:49:26;10.00;;;7.37;;
177;SDS011;77;48.792;9.032;2023-05-20T08:51:51;11.13;;;8.23;;
177;SDS011;77;48.792;9.032;2023-05-20T08:54:16;11.30;;;8.13;;
177;SDS011;77;48.792;9.032;2023-05-20T08:56:42;10.90;;;7.80;;
177;SDS011;77;48.792;9.032;2023-05-20T08:59:07;11.17;;;7.87;;
177;SDS011;77;48.792;9.032;2023-05-20T09:01:35;11.53;;;8.23;;
177;SDS011;77;48.792;9.032;2023-05-20T09:04:01;11.30;;;8.27;;
177;SDS011;77;48.792;9.032;2023-05-20T09:06:26;15.60;;;8.57;;
177;SDS011;77;48.792;9.032;2023-05-20T09:08:51;10.47;;;7.30;;
177;SDS011;77;48.792;9.032;2023-05-20T09:11:16;11.17;;;7.80;;
177;SDS011;77;48.792;9.032;2023-05-20T09:13:42;12.20;;;8.17;;
177;SDS011;77;48.792;9.032;2023-05-20T09:16:08;11.70;;;8.50;;
177;SDS011;77;48.792;9.032;2023-05-20T09:18:36;10.47;;;7.70;;
177;SDS011;77;48.792;9.032;2023-05-20T09:21:03;10.27;;;7.70;;
177;SDS011;77;48.792;9.032;2023-05-20T09:23:28;11.20;;;7.90;;
177;SDS011;77;48.792;9.032;2023-05-20T09:25:54;12.20;;;8.07;;
177;SDS011;77;48.792;9.032;2023-05-20T09:28:21;11.67;;;7.50;;
177;SDS011;77;48.792;9.032;2023-05-20T09:30:47;10.40;;;7.77;;
177;SDS011;77;48.792;9.032;2023-05-20T09:33:13;12.30;;;7.70;;
177;SDS011;77;48.792;9.032;2023-05-20T09:35:40;11.23;;;7.90;;
177;SDS011;77;48.792;9.032;2023-05-20T09:38:05;10.97;;;7.17;;
177;SDS011;77;48.792;9.032;2023-05-20T09:40:30;11.13;;;8.30;;
177;SDS011;77;48.792;9.032;2023-05-20T09:42:56;11.93;;;7.70;;
177;SDS011;77;48.792;9.032;2023-05-20T09:45:21;10.70;;;7.97;;
177;SDS011;77;48.792;9.032;2023-05-20T09:47:47;10.73;;;7.10;;
177;SDS011;77;48.792;9.032;2023-05-20T09:50:14;10.13;;;7.73;;
177;SDS011;77;48.792;9.032;2023-05-20T09:52:40;11.43;;;8.43;;
177;SDS011;77;48.792;9.032;2023-05-20T09:55:07;9.80;;;7.27;;
177;SDS011;77;48.792;9.032;2023-05-20T09:57:32;9.80;;;7.70;;
177;SDS011;77;48.792;9.032;2023-05-20T09:59:58;10.63;;;7.80;;
177;SDS011;77;48.792;9.032;2023-05-20T10:02:23;10.73;;;7.80;;
177;SDS011;77;48.792;9.032;2023-05-20T10:04:48;9.10;;;7.17;;
177;SDS011;77;48.792;9.032;2023-05-20T10:07:28;11.47;;;7.77;;
177;SDS011;77;48.792;9.032;2023-05-20T10:09:58;9.50;;;7.47;;
177;SDS011;77;48.792;9.032;2023-05-20T10:12:28;9.40;;;7.17;;
177;SDS011;77;48.792;9.032;2023-05-20T10:14:58;15.60;;;7.30;;
177;SDS011;77;48.792;9.032;2023-05-20T10:17:27;9.93;;;7.43;;
177;SDS011;77;48.792;9.032;2023-05-20T10:19:58;8.57;;;6.30;;
177;SDS011;77;48.792;9.032;2023-05-20T10:22:28;8.53;;;7.10;;
177;SDS011;77;48.792;9.032;2023-05-20T10:24:58;9.50;;;8.03;;
177;SDS011;77;48.792;9.032;2023-05-20T10:27:23;13.73;;;8.00;;
177;SDS011;77;48.792;9.032;2023-05-20T10:29:49;11.13;;;8.10;;
177;SDS011;77;48.792;9.032;2023-05-20T10:32:22;10.63;;;7.70;;
177;SDS011;77;48.792;9.032;2023-05-20T10:34:48;10.20;;;7.37;;
177;SDS011;77;48.792;9.032;2023-05-20T10:37:23;9.60;;;7.50;;
177;SDS011;77;48.792;9.032;2023-05-20T10:39:48;8.60;;;7.17;;
177;SDS011;77;48.792;9.032;2023-05-20T10:42:15;9.47;;;7.60;;
177;SDS011;77;48.792;9.032;2023-05-20T10:44:40;11.20;;;7.60;;
177;SDS011;77;48.792;9.032;2023-05-20T10:47:06;10.87;;;7.30;;
177;SDS011;77;48.792;9.032;2023-05-20T10:49:32;10.53;;;7.43;;
177;SDS011;77;48.792;9.032;2023-05-20T10:51:58;9.67;;;7.33;;
177;SDS011;77;48.792;9.032;2023-05-20T10:54:23;10.43;;;7.50;;
177;SDS011;77;48.792;9.032;2023-05-20T10:56:52;9.57;;;7.73;;
177;SDS011;77;48.792;9.032;2023-05-20T10:59:19;10.00;;;7.80;;
177;SDS011;77;48.792;9.032;2023-05-20T11:01:44;10.30;;;7.10;;
177;SDS011;77;48.792;9.032;2023-05-20T11:04:10;12.07;;;6.93;;
177;SDS011;77;48.792;9.032;2023-05-20T11:06:35;9.00;;;7.63;;
177;SDS011;77;48.792;9.032;2023-05-20T11:09:02;9.00;;;7.00;;
177;SDS011;77;48.792;9.032;2023-05-20T11:11:27;10.43;;;7.00;;
177;SDS011;77;48.792;9.032;2023-05-20T11:13:55;8.87;;;7.13;;
177;SDS011;77;48.792;9.032;2023-05-20T11:16:22;10.10;;;7.33;;
177;SDS011;77;48.792;9.032;2023-05-20T11:18:47;11.03;;;7.80;;
177;SDS011;77;48.792;9.032;2023-05-20T11:21:13;9.70;;;7.57;;
177;SDS011;77;48.792;9.032;2023-05-20T11:23:38;10.30;;;7.87;;
177;SDS011;77;48.792;9.032;2023-05-20T11:26:03;9.70;;;7.90;;
177;SDS011;77;48.792;9.032;2023-05-20T11:28:28;9.87;;;7.67;;
177;SDS011;77;48.792;9.032;2023-05-20T11:30:54;8.10;;;6.93;;
177;SDS011;77;48.792;9.032;2023-05-20T11:33:20;9.77;;;7.30;;
177;SDS011;77;48.792;9.032;2023-05-20T11:35:49;10.80;;;6.90;;
177;SDS011;77;48.792;9.032;2023-05-20T11:38:15;10.47;;;7.10;;
177;SDS011;77;48.792;9.032;2023-05-20T11:40:44;8.17;;;6.70;;
177;SDS011;77;48.792;9.032;2023-05-20T11:43:09;12.93;;;7.30;;
177;SDS011;77;48.792;9.032;2023-05-20T11:45:39;10.23;;;6.97;;
177;SDS011;77;48.792;9.032;2023-05-20T11:48:04;15.07;;;8.40;;
177;SDS011;77;48.792;9.032;2023-05-20T11:50:34;10.53;;;6.50;;
177;SDS011;77;48.792;9.032;2023-05-20T11:53:00;10.30;;;6.53;;
177;SDS011;77;48.792;9.032;2023-05-20T11:55:26;11.20;;;6.77;;
177;SDS011;77;48.792;9.032;2023-05-20T11:57:51;8.87;;;6.87;;
177;SDS011;77;48.792;9.032;2023-05-20T12:00:17;8.73;;;6.90;;
177;SDS011;77;48.792;9.032;2023-05-20T12:02:42;14.43;;;8.53;;
177;SDS011;77;48.792;9.032;2023-05-20T12:05:07;13.10;;;7.60;;
177;SDS011;77;48.792;9.032;2023-05-20T12:07:34;9.00;;;6.30;;
177;SDS011;77;48.792;9.032;2023-05-20T12:10:00;9.47;;;6.63;;
177;SDS011;77;48.792;9.032;2023-05-20T12:12:25;15.73;;;7.03;;
177;SDS011;77;48.792;9.032;2023-05-20T12:14:50;9.17;;;6.90;;
177;SDS011;77;48.792;9.032;2023-05-20T12:17:15;8.43;;;6.73;;
177;SDS011;77;48.792;9.032;2023-05-20T12:19:41;8.33;;;6.50;;
177;SDS011;77;48.792;9.032;2023-05-20T12:22:06;8.00;;;6.80;;
177;SDS011;77;48.792;9.032;2023-05-20T12:24:32;8.80;;;6.33;;
177;SDS011;77;48.792;9.032;2023-05-20T12:26:57;8.63;;;6.80;;
177;SDS011;77;48.792;9.032;2023-05-20T12:29:23;9.23;;;6.73;;
177;SDS011;77;48.792;9.032;2023-05-20T12:31:48;7.87;;;6.40;;
177;SDS011;77;48.792;9.032;2023-05-20T12:34:13;7.90;;;6.37;;
177;SDS011;77;48.792;9.032;2023-05-20T12:36:38;11.17;;;6.83;;
177;SDS011;77;48.792;9.032;2023-05-20T12:39:03;9.20;;;6.70;;
177;SDS011;77;48.792;9.032;2023-05-20T12:41:30;9.53;;;7.03;;
177;SDS011;77;48.792;9.032;2023-05-20T12:43:55;8.90;;;7.10;;
177;SDS011;77;48.792;9.032;2023-05-20T12:46:20;8.83;;;6.73;;
177;SDS011;77;48.792;9.032;2023-05-20T12:48:45;8.80;;;6.80;;
177;SDS011;77;48.792;9.032;2023-05-20T12:51:10;9.60;;;7.17;;
177;SDS011;77;48.792;9.032;2023-05-20T12:53:36;8.47;;;6.73;;
177;SDS011;77;48.792;9.032;2023-05-20T12:56:01;11.00;;;6.97;;
177;SDS011;77;48.792;9.032;2023-05-20T12:58:27;8.57;;;7.40;;
177;SDS011;77;48.792;9.032;2023-05-20T13:00:53;8.63;;;6.90;;
177;SDS011;77;48.792;9.032;2023-05-20T13:03:18;8.60;;;6.93;;
177;SDS011;77;48.792;9.032;2023-05-20T13:05:43;9.57;;;6.67;;
177;SDS011;77;48.792;9.032;2023-05-20T13:08:08;11.30;;;7.50;;
177;SDS011;77;48.792;9.032;2023-05-20T13:10:33;9.80;;;7.43;;
177;SDS011;77;48.792;9.032;2023-05-20T13:12:58;10.10;;;7.33;;
177;SDS011;77;48.792;9.032;2023-05-20T13:15:25;10.40;;;7.57;;
177;SDS011;77;48.792;9.032;2023-05-20T13:17:50;8.37;;;6.80;;
177;SDS011;77;48.792;9.032;2023-05-20T13:20:15;8.37;;;6.90;;
177;SDS011;77;48.792;9.032;2023-05-20T13:22:40;10.57;;;7.00;;
177;SDS011;77;48.792;9.032;2023-05-20T13:25:06;8.27;;;6.70;;
177;SDS011;77;48.792;9.032;2023-05-20T13:27:31;8.00;;;6.50;;
177;SDS011;77;48.792;9.032;2023-05-20T13:29:56;8.60;;;6.43;;
177;SDS011;77;48.792;9.032;2023-05-20T13:32:23;8.53;;;6.63;;
177;SDS011;77;48.792;9.032;2023-05-20T13:34:48;7.83;;;6.10;;
177;SDS011;77;48.792;9.032;2023-05-20T13:37:13;9.20;;;6.70;;
177;SDS011;77;48.792;9.032;2023-05-20T13:39:39;7.83;;;6.50;;
177;SDS011;77;48.792;9.032;2023-05-20T13:42:04;9.00;;;6.93;;
177;SDS011;77;48.792;9.032;2023-05-20T13:44:29;8.27;;;6.27;;
177;SDS011;77;48.792;9.032;2023-05-20T13:46:54;11.93;;;7.37;;
177;SDS011;77;48.792;9.032;2023-05-20T13:49:21;9.50;;;6.60;;
177;SDS011;77;48.792;9.032;2023-05-20T13:51:46;11.43;;;6.60;;
177;SDS011;77;48.792;9.032;2023-05-20T13:54:11;9.10;;;7.10;;
177;SDS011;77;48.792;9.032;2023-05-20T13:56:36;8.47;;;6.67;;
177;SDS011;77;48.792;9.032;2023-05-20T13:59:02;10.20;;;7.20;;
177;SDS011;77;48.792;9.032;2023-05-20T14:01:28;9.00;;;6.83;;
177;SDS011;77;48.792;9.032;2023-05-20T14:03:54;11.43;;;6.70;;
177;SDS011;77;48.792;9.032;2023-05-20T14:06:20;7.97;;;6.27;;
177;SDS011;77;48.792;9.032;2023-05-20T14:08:45;9.83;;;6.53;;
177;SDS011;77;48.792;9.032;2023-05-20T14:11:11;9.10;;;6.50;;
177;SDS011;77;48.792;9.032;2023-05-20T14:13:36;9.67;;;6.50;;
177;SDS011;77;48.792;9.032;2023-05-20T14:16:01;6.83;;;6.10;;
177;SDS011;77;48.792;9.032;2023-05-20T14:18:26;10.70;;;6.50;;
177;SDS011;77;48.792;9.032;2023-05-20T14:20:51;11.13;;;6.37;;
177;SDS011;77;48.792;9.032;2023-05-20T14:23:18;8.20;;;6.40;;
177;SDS011;77;48.792;9.032;2023-05-20T14:25:43;11.43;;;6.37;;
177;SDS011;77;48.792;9.032;2023-05-20T14:28:08;9.70;;;6.90;;
177;SDS011;77;48.792;9.032;2023-05-20T14:30:33;9.83;;;6.83;;
177;SDS011;77;48.792;9.032;2023-05-20T14:32:58;8.63;;;6.67;;
177;SDS011;77;48.792;9.032;2023-05-20T14:35:24;10.20;;;6.50;;
177;SDS011;77;48.792;9.032;2023-05-20T14:37:49;9.00;;;6.77;;
177;SDS011;77;48.792;9.032;2023-05-20T14:40:15;9.67;;;6.43;;
177;SDS011;77;48.792;9.032;2023-05-20T14:42:40;9.37;;;6.17;;
177;SDS011;77;48.792;9.032;2023-05-20T14:45:06;8.80;;;6.67;;
177;SDS011;77;48.792;9.032;2023-05-20T14:47:31;8.70;;;6.33;;
177;SDS011;77;48.792;9.032;2023-05-20T14:49:57;10.13;;;6.17;;
177;SDS011;77;48.792;9.032;2023-05-20T14:52:22;25.97;;;10.93;;
177;SDS011;77;48.792;9.032;2023-05-20T14:54:47;11.90;;;6.37;;
177;SDS011;77;48.792;9.032;2023-05-20T14:57:14;7.63;;;6.00;;
177;SDS011;77;48.792;9.032;2023-05-20T14:59:39;7.40;;;5.97;;
177;SDS011;77;48.792;9.032;2023-05-20T15:02:04;7.70;;;5.90;;
177;SDS011;77;48.792;9.032;2023-05-20T15:04:29;9.40;;;6.43;;
177;SDS011;77;48.792;9.032;2023-05-20T15:06:54;7.73;;;5.97;;
177;SDS011;77;48.792;9.032;2023-05-20T15:09:19;6.80;;;5.67;;
177;SDS011;77;48.792;9.032;2023-05-20T15:11:45;8.67;;;6.50;;
177;SDS011;77;48.792;9.032;2023-05-20T15:14:11;10.30;;;6.73;;
177;SDS011;77;48.792;9.032;2023-05-20T15:16:36;9.73;;;6.07;;
177;SDS011;77;48.792;9.032;2023-05-20T15:19:02;7.60;;;6.10;;
177;SDS011;77;48.792;9.032;2023-05-20T15:21:27;8.33;;;6.33;;
177;SDS011;77;48.792;9.032;2023-05-20T15:23:52;8.40;;;6.20;;
177;SDS011;77;48.792;9.032;2023-05-20T15:26:17;8.73;;;6.40;;
177;SDS011;77;48.792;9.032;2023-05-20T15:28:42;8.27;;;6.20;;
177;SDS011;77;48.792;9.032;2023-05-20T15:31:09;9.63;;;6.73;;
177;SDS011;77;48.792;9.032;2023-05-20T15:33:34;7.77;;;6.40;;
177;SDS011;77;48.792;9.032;2023-05-20T15:35:59;9.27;;;6.63;;
177;SDS011;77;48.792;9.032;2023-05-20T15:38:24;8.13;;;6.10;;